sensor_id;sensor_type;location;lat;lon;timestamp;temperature;humidity
19033;DHT22;9649;51.042;13.804;2022-07-01T00:01:20;21.90;99.90
19033;DHT22;9649;51.042;13.804;2022-07-01T00:06:24;21.80;99.90
19033;DHT22;9649;51.042;13.804;2022-07-01T00:11:31;21.80;99.90
19033;DHT22;9649;51.042;13.804;2022-07-01T00:16:37;21.70;99.90
19033;DHT22;9649;51.042;13.804;2022-07-01T00:21:44;21.50;99.90
19033;DHT22;9649;51.042;13.804;2022-07-01T00:26:52;21.50;99.90
19033;DHT22;9649;51.042;13.804;2022-07-01T00:32:01;21.40;99.90
19033;DHT22;9649;51.042;13.804;2022-07-01T00:37:11;21.50;99.90
19033;DHT22;9649;51.042;13.804;2022-07-01T00:42:18;21.30;99.90
19033;DHT22;9649;51.042;13.804;2022-07-01T00:47:33;21.20;99.90
19033;DHT22;9649;51.042;13.804;2022-07-01T00:52:39;21.10;99.90
19033;DHT22;9649;51.042;13.804;2022-07-01T00:57:43;20.90;99.90
19033;DHT22;9649;51.042;13.804;2022-07-01T01:02:46;21.00;99.90
19033;DHT22;9649;51.042;13.804;2022-07-01T01:07:49;20.90;99.90
19033;DHT22;9649;51.042;13.804;2022-07-01T01:12:54;20.60;99.90
19033;DHT22;9649;51.042;13.804;2022-07-01T01:17:58;20.50;99.90
19033;DHT22;9649;51.042;13.804;2022-07-01T01:23:03;20.50;99.90
19033;DHT22;9649;51.042;13.804;2022-07-01T01:28:06;20.60;99.90
19033;DHT22;9649;51.042;13.804;2022-07-01T01:33:08;20.50;99.90
19033;DHT22;9649;51.042;13.804;2022-07-01T01:38:14;20.80;99.90
19033;DHT22;9649;51.042;13.804;2022-07-01T01:43:17;20.60;99.90
19033;DHT22;9649;51.042;13.804;2022-07-01T01:48:19;20.40;99.90
19033;DHT22;9649;51.042;13.804;2022-07-01T01:53:24;20.60;99.90
19033;DHT22;9649;51.042;13.804;2022-07-01T01:58:27;20.40;99.90
19033;DHT22;9649;51.042;13.804;2022-07-01T02:03:29;20.10;99.90
19033;DHT22;9649;51.042;13.804;2022-07-01T02:08:34;20.00;99.90
19033;DHT22;9649;51.042;13.804;2022-07-01T02:13:37;20.00;99.90
19033;DHT22;9649;51.042;13.804;2022-07-01T02:18:40;20.10;99.90
19033;DHT22;9649;51.042;13.804;2022-07-01T02:23:44;20.10;99.90
19033;DHT22;9649;51.042;13.804;2022-07-01T02:28:47;20.00;99.90
19033;DHT22;9649;51.042;13.804;2022-07-01T02:33:49;19.90;99.90
19033;DHT22;9649;51.042;13.804;2022-07-01T02:38:54;20.10;99.90
19033;DHT22;9649;51.042;13.804;2022-07-01T02:43:56;19.90;99.90
19033;DHT22;9649;51.042;13.804;2022-07-01T02:48:59;19.90;99.90
19033;DHT22;9649;51.042;13.804;2022-07-01T02:54:06;19.70;99.90
19033;DHT22;9649;51.042;13.804;2022-07-01T02:59:08;19.80;99.90
19033;DHT22;9649;51.042;13.804;2022-07-01T03:04:11;19.90;99.90
19033;DHT22;9649;51.042;13.804;2022-07-01T03:09:15;20.00;99.90
19033;DHT22;9649;51.042;13.804;2022-07-01T03:14:19;20.10;99.90
19033;DHT22;9649;51.042;13.804;2022-07-01T03:19:22;20.00;99.90
19033;DHT22;9649;51.042;13.804;2022-07-01T03:24:26;19.90;99.90
19033;DHT22;9649;51.042;13.804;2022-07-01T03:29:29;20.30;99.90
19033;DHT22;9649;51.042;13.804;2022-07-01T03:34:31;20.20;99.90
19033;DHT22;9649;51.042;13.804;2022-07-01T03:39:37;20.00;99.90
19033;DHT22;9649;51.042;13.804;2022-07-01T03:44:39;20.20;99.90
19033;DHT22;9649;51.042;13.804;2022-07-01T03:49:42;20.20;99.90
19033;DHT22;9649;51.042;13.804;2022-07-01T03:54:46;20.30;99.90
19033;DHT22;9649;51.042;13.804;2022-07-01T03:59:49;20.60;99.90
19033;DHT22;9649;51.042;13.804;2022-07-01T04:04:52;21.00;99.90
19033;DHT22;9649;51.042;13.804;2022-07-01T04:09:58;21.30;99.90
19033;DHT22;9649;51.042;13.804;2022-07-01T04:15:01;21.70;99.90
19033;DHT22;9649;51.042;13.804;2022-07-01T04:20:05;22.10;99.90
19033;DHT22;9649;51.042;13.804;2022-07-01T04:25:10;22.60;99.90
19033;DHT22;9649;51.042;13.804;2022-07-01T04:30:12;22.90;99.90
19033;DHT22;9649;51.042;13.804;2022-07-01T04:35:15;23.20;99.90
19033;DHT22;9649;51.042;13.804;2022-07-01T04:40:20;23.60;99.90
19033;DHT22;9649;51.042;13.804;2022-07-01T04:45:22;23.90;99.90
19033;DHT22;9649;51.042;13.804;2022-07-01T04:50:25;24.10;99.90
19033;DHT22;9649;51.042;13.804;2022-07-01T04:55:30;23.80;99.90
19033;DHT22;9649;51.042;13.804;2022-07-01T05:00:33;23.50;99.90
19033;DHT22;9649;51.042;13.804;2022-07-01T05:05:36;23.70;99.90
19033;DHT22;9649;51.042;13.804;2022-07-01T05:10:40;24.10;99.90
19033;DHT22;9649;51.042;13.804;2022-07-01T05:15:43;24.50;99.90
19033;DHT22;9649;51.042;13.804;2022-07-01T05:20:46;24.80;99.90
19033;DHT22;9649;51.042;13.804;2022-07-01T05:26:16;25.10;99.90
19033;DHT22;9649;51.042;13.804;2022-07-01T05:31:19;25.50;99.90
19033;DHT22;9649;51.042;13.804;2022-07-01T05:36:22;25.40;99.90
19033;DHT22;9649;51.042;13.804;2022-07-01T05:41:26;25.40;99.90
19033;DHT22;9649;51.042;13.804;2022-07-01T05:46:29;25.40;99.90
19033;DHT22;9649;51.042;13.804;2022-07-01T05:51:32;25.30;99.90
19033;DHT22;9649;51.042;13.804;2022-07-01T05:56:36;25.20;99.90
19033;DHT22;9649;51.042;13.804;2022-07-01T06:01:39;25.10;99.90
19033;DHT22;9649;51.042;13.804;2022-07-01T06:06:41;25.20;99.90
19033;DHT22;9649;51.042;13.804;2022-07-01T06:11:45;25.40;99.90
19033;DHT22;9649;51.042;13.804;2022-07-01T06:16:48;25.60;99.90
19033;DHT22;9649;51.042;13.804;2022-07-01T06:21:51;25.70;99.90
19033;DHT22;9649;51.042;13.804;2022-07-01T06:26:55;25.20;99.90
19033;DHT22;9649;51.042;13.804;2022-07-01T06:31:58;25.20;99.90
19033;DHT22;9649;51.042;13.804;2022-07-01T06:37:08;25.20;99.90
19033;DHT22;9649;51.042;13.804;2022-07-01T06:42:12;25.50;99.90
19033;DHT22;9649;51.042;13.804;2022-07-01T06:47:14;25.80;99.90
19033;DHT22;9649;51.042;13.804;2022-07-01T06:52:49;25.90;99.90
19033;DHT22;9649;51.042;13.804;2022-07-01T07:05:24;26.10;99.90
19033;DHT22;9649;51.042;13.804;2022-07-01T07:11:07;26.40;99.90
19033;DHT22;9649;51.042;13.804;2022-07-01T07:16:49;26.40;99.90
19033;DHT22;9649;51.042;13.804;2022-07-01T07:41:15;25.30;99.90
19033;DHT22;9649;51.042;13.804;2022-07-01T07:46:59;24.80;99.90
19033;DHT22;9649;51.042;13.804;2022-07-01T07:53:13;24.40;99.90
19033;DHT22;9649;51.042;13.804;2022-07-01T07:59:41;24.00;99.90
19033;DHT22;9649;51.042;13.804;2022-07-01T08:24:15;23.80;99.90
19033;DHT22;9649;51.042;13.804;2022-07-01T08:35:32;23.50;99.90
19033;DHT22;9649;51.042;13.804;2022-07-01T08:41:05;23.60;99.90
19033;DHT22;9649;51.042;13.804;2022-07-01T08:46:50;23.80;99.90
19033;DHT22;9649;51.042;13.804;2022-07-01T08:52:22;24.40;99.90
19033;DHT22;9649;51.042;13.804;2022-07-01T08:57:35;24.90;99.90
19033;DHT22;9649;51.042;13.804;2022-07-01T09:03:04;24.90;99.90
19033;DHT22;9649;51.042;13.804;2022-07-01T09:08:29;24.60;99.90
19033;DHT22;9649;51.042;13.804;2022-07-01T09:14:25;23.90;99.90
19033;DHT22;9649;51.042;13.804;2022-07-01T09:19:50;23.40;99.90
19033;DHT22;9649;51.042;13.804;2022-07-01T09:25:33;23.20;99.90
19033;DHT22;9649;51.042;13.804;2022-07-01T09:31:35;22.60;99.90
19033;DHT22;9649;51.042;13.804;2022-07-01T09:37:21;22.20;99.90
19033;DHT22;9649;51.042;13.804;2022-07-01T09:43:25;22.30;99.90
19033;DHT22;9649;51.042;13.804;2022-07-01T09:49:01;22.20;99.90
19033;DHT22;9649;51.042;13.804;2022-07-01T09:54:54;21.80;99.90
19033;DHT22;9649;51.042;13.804;2022-07-01T10:06:46;21.60;99.90
19033;DHT22;9649;51.042;13.804;2022-07-01T10:12:39;21.70;99.90
19033;DHT22;9649;51.042;13.804;2022-07-01T10:17:54;21.90;99.90
19033;DHT22;9649;51.042;13.804;2022-07-01T10:23:56;22.10;99.90
19033;DHT22;9649;51.042;13.804;2022-07-01T10:30:13;22.20;99.90
19033;DHT22;9649;51.042;13.804;2022-07-01T10:35:35;22.10;99.90
19033;DHT22;9649;51.042;13.804;2022-07-01T10:40:49;22.50;99.90
19033;DHT22;9649;51.042;13.804;2022-07-01T10:52:29;22.90;99.90
19033;DHT22;9649;51.042;13.804;2022-07-01T10:58:05;23.40;99.90
19033;DHT22;9649;51.042;13.804;2022-07-01T11:03:22;24.30;99.90
19033;DHT22;9649;51.042;13.804;2022-07-01T11:09:20;22.70;99.90
19033;DHT22;9649;51.042;13.804;2022-07-01T11:14:54;22.10;99.90
19033;DHT22;9649;51.042;13.804;2022-07-01T11:20:46;22.00;99.90
19033;DHT22;9649;51.042;13.804;2022-07-01T11:26:09;21.30;99.90
19033;DHT22;9649;51.042;13.804;2022-07-01T11:31:49;21.50;99.90
19033;DHT22;9649;51.042;13.804;2022-07-01T11:37:14;21.20;99.90
19033;DHT22;9649;51.042;13.804;2022-07-01T11:42:59;20.50;99.90
19033;DHT22;9649;51.042;13.804;2022-07-01T11:48:58;20.10;99.90
19033;DHT22;9649;51.042;13.804;2022-07-01T11:54:40;19.90;99.90
19033;DHT22;9649;51.042;13.804;2022-07-01T12:00:25;19.80;99.90
19033;DHT22;9649;51.042;13.804;2022-07-01T12:05:58;19.60;99.90
19033;DHT22;9649;51.042;13.804;2022-07-01T12:11:29;19.30;99.90
19033;DHT22;9649;51.042;13.804;2022-07-01T12:16:44;18.80;99.90
19033;DHT22;9649;51.042;13.804;2022-07-01T12:22:12;18.70;99.90
19033;DHT22;9649;51.042;13.804;2022-07-01T12:27:39;18.40;99.90
19033;DHT22;9649;51.042;13.804;2022-07-01T12:32:57;18.30;99.90
19033;DHT22;9649;51.042;13.804;2022-07-01T12:38:19;18.70;99.90
19033;DHT22;9649;51.042;13.804;2022-07-01T12:43:34;19.00;99.90
19033;DHT22;9649;51.042;13.804;2022-07-01T12:48:48;18.70;99.90
19033;DHT22;9649;51.042;13.804;2022-07-01T12:54:13;18.40;99.90
19033;DHT22;9649;51.042;13.804;2022-07-01T12:59:35;18.80;99.90
19033;DHT22;9649;51.042;13.804;2022-07-01T13:04:39;19.30;99.90
19033;DHT22;9649;51.042;13.804;2022-07-01T13:09:44;19.70;99.90
19033;DHT22;9649;51.042;13.804;2022-07-01T13:14:50;19.60;99.90
19033;DHT22;9649;51.042;13.804;2022-07-01T13:19:58;19.50;99.90
19033;DHT22;9649;51.042;13.804;2022-07-01T13:25:04;19.70;99.90
19033;DHT22;9649;51.042;13.804;2022-07-01T13:30:08;20.70;99.90
19033;DHT22;9649;51.042;13.804;2022-07-01T13:35:12;21.50;99.90
19033;DHT22;9649;51.042;13.804;2022-07-01T13:40:18;21.00;99.90
19033;DHT22;9649;51.042;13.804;2022-07-01T13:45:21;20.20;99.90
19033;DHT22;9649;51.042;13.804;2022-07-01T13:50:24;20.10;99.90
19033;DHT22;9649;51.042;13.804;2022-07-01T13:55:29;19.80;99.90
19033;DHT22;9649;51.042;13.804;2022-07-01T14:00:32;19.60;99.90
19033;DHT22;9649;51.042;13.804;2022-07-01T14:05:35;19.30;99.90
19033;DHT22;9649;51.042;13.804;2022-07-01T14:10:40;19.50;99.90
19033;DHT22;9649;51.042;13.804;2022-07-01T14:15:44;19.80;99.90
19033;DHT22;9649;51.042;13.804;2022-07-01T14:20:53;19.50;99.90
19033;DHT22;9649;51.042;13.804;2022-07-01T14:25:58;19.50;99.90
19033;DHT22;9649;51.042;13.804;2022-07-01T14:31:06;19.60;99.90
19033;DHT22;9649;51.042;13.804;2022-07-01T14:36:14;19.30;99.90
19033;DHT22;9649;51.042;13.804;2022-07-01T14:41:25;19.20;99.90
19033;DHT22;9649;51.042;13.804;2022-07-01T14:46:31;19.20;99.90
19033;DHT22;9649;51.042;13.804;2022-07-01T14:51:34;19.00;99.90
19033;DHT22;9649;51.042;13.804;2022-07-01T14:57:06;18.90;99.90
19033;DHT22;9649;51.042;13.804;2022-07-01T15:02:24;18.70;99.90
19033;DHT22;9649;51.042;13.804;2022-07-01T15:07:41;18.50;99.90
19033;DHT22;9649;51.042;13.804;2022-07-01T15:12:53;18.20;99.90
19033;DHT22;9649;51.042;13.804;2022-07-01T15:18:13;18.40;99.90
19033;DHT22;9649;51.042;13.804;2022-07-01T15:23:23;18.30;99.90
19033;DHT22;9649;51.042;13.804;2022-07-01T15:28:32;18.20;99.90
19033;DHT22;9649;51.042;13.804;2022-07-01T15:33:50;18.10;99.90
19033;DHT22;9649;51.042;13.804;2022-07-01T15:39:31;18.30;99.90
19033;DHT22;9649;51.042;13.804;2022-07-01T15:51:43;18.20;99.90
19033;DHT22;9649;51.042;13.804;2022-07-01T15:57:39;18.50;99.90
19033;DHT22;9649;51.042;13.804;2022-07-01T16:03:04;18.40;99.90
19033;DHT22;9649;51.042;13.804;2022-07-01T16:08:16;18.60;99.90
19033;DHT22;9649;51.042;13.804;2022-07-01T16:13:21;18.50;99.90
19033;DHT22;9649;51.042;13.804;2022-07-01T16:18:29;18.10;99.90
19033;DHT22;9649;51.042;13.804;2022-07-01T16:23:36;17.90;99.90
19033;DHT22;9649;51.042;13.804;2022-07-01T16:28:43;17.80;99.90
19033;DHT22;9649;51.042;13.804;2022-07-01T16:33:47;17.80;99.90
19033;DHT22;9649;51.042;13.804;2022-07-01T16:38:56;17.80;99.90
19033;DHT22;9649;51.042;13.804;2022-07-01T16:44:06;18.00;99.90
19033;DHT22;9649;51.042;13.804;2022-07-01T16:49:11;17.90;99.90
19033;DHT22;9649;51.042;13.804;2022-07-01T16:54:24;18.10;99.90
19033;DHT22;9649;51.042;13.804;2022-07-01T16:59:29;18.30;99.90
19033;DHT22;9649;51.042;13.804;2022-07-01T17:04:33;18.30;99.90
19033;DHT22;9649;51.042;13.804;2022-07-01T17:09:41;18.30;99.90
19033;DHT22;9649;51.042;13.804;2022-07-01T17:14:48;18.40;99.90
19033;DHT22;9649;51.042;13.804;2022-07-01T17:19:51;18.40;99.90
19033;DHT22;9649;51.042;13.804;2022-07-01T17:25:02;18.40;99.90
19033;DHT22;9649;51.042;13.804;2022-07-01T17:30:12;18.30;99.90
19033;DHT22;9649;51.042;13.804;2022-07-01T17:35:18;18.40;99.90
19033;DHT22;9649;51.042;13.804;2022-07-01T17:40:34;18.20;99.90
19033;DHT22;9649;51.042;13.804;2022-07-01T17:45:54;18.00;99.90
19033;DHT22;9649;51.042;13.804;2022-07-01T17:51:01;18.00;99.90
19033;DHT22;9649;51.042;13.804;2022-07-01T17:56:11;18.00;99.90
19033;DHT22;9649;51.042;13.804;2022-07-01T18:01:17;17.90;99.90
19033;DHT22;9649;51.042;13.804;2022-07-01T18:06:25;18.00;99.90
19033;DHT22;9649;51.042;13.804;2022-07-01T18:12:05;17.90;99.90
19033;DHT22;9649;51.042;13.804;2022-07-01T18:17:41;17.90;99.90
19033;DHT22;9649;51.042;13.804;2022-07-01T18:23:07;17.90;99.90
19033;DHT22;9649;51.042;13.804;2022-07-01T18:28:25;17.70;99.90
19033;DHT22;9649;51.042;13.804;2022-07-01T18:33:41;17.70;99.90
19033;DHT22;9649;51.042;13.804;2022-07-01T18:38:46;17.70;99.90
19033;DHT22;9649;51.042;13.804;2022-07-01T18:43:58;17.50;99.90
19033;DHT22;9649;51.042;13.804;2022-07-01T18:49:14;17.30;99.90
19033;DHT22;9649;51.042;13.804;2022-07-01T19:31:00;17.30;99.90
19033;DHT22;9649;51.042;13.804;2022-07-01T19:58:58;17.10;99.90
19033;DHT22;9649;51.042;13.804;2022-07-01T20:04:52;17.00;99.90
19033;DHT22;9649;51.042;13.804;2022-07-01T20:10:36;16.90;99.90
19033;DHT22;9649;51.042;13.804;2022-07-01T20:15:41;16.80;99.90
19033;DHT22;9649;51.042;13.804;2022-07-01T20:20:45;16.70;99.90
19033;DHT22;9649;51.042;13.804;2022-07-01T20:25:48;16.40;99.90
19033;DHT22;9649;51.042;13.804;2022-07-01T20:30:52;16.30;99.90
19033;DHT22;9649;51.042;13.804;2022-07-01T20:35:55;16.20;99.90
19033;DHT22;9649;51.042;13.804;2022-07-01T20:40:58;16.30;99.90
19033;DHT22;9649;51.042;13.804;2022-07-01T20:46:02;16.20;99.90
19033;DHT22;9649;51.042;13.804;2022-07-01T20:51:05;16.10;99.90
19033;DHT22;9649;51.042;13.804;2022-07-01T20:56:08;16.10;99.90
19033;DHT22;9649;51.042;13.804;2022-07-01T21:01:15;16.00;99.90
19033;DHT22;9649;51.042;13.804;2022-07-01T21:06:20;15.80;99.90
19033;DHT22;9649;51.042;13.804;2022-07-01T21:11:23;15.90;99.90
19033;DHT22;9649;51.042;13.804;2022-07-01T21:16:30;15.90;99.90
19033;DHT22;9649;51.042;13.804;2022-07-01T21:21:35;15.80;99.90
19033;DHT22;9649;51.042;13.804;2022-07-01T21:26:41;15.60;99.90
19033;DHT22;9649;51.042;13.804;2022-07-01T21:32:24;15.60;99.90
19033;DHT22;9649;51.042;13.804;2022-07-01T21:38:02;15.60;99.90
19033;DHT22;9649;51.042;13.804;2022-07-01T21:43:31;15.50;99.90
19033;DHT22;9649;51.042;13.804;2022-07-01T21:49:35;15.40;99.90
19033;DHT22;9649;51.042;13.804;2022-07-01T21:55:48;15.50;99.90
19033;DHT22;9649;51.042;13.804;2022-07-01T22:01:33;15.40;99.90
19033;DHT22;9649;51.042;13.804;2022-07-01T22:06:56;15.10;99.90
19033;DHT22;9649;51.042;13.804;2022-07-01T22:12:08;14.90;99.90
19033;DHT22;9649;51.042;13.804;2022-07-01T22:17:14;14.80;99.90
19033;DHT22;9649;51.042;13.804;2022-07-01T22:22:25;14.70;99.90
19033;DHT22;9649;51.042;13.804;2022-07-01T22:27:29;14.50;99.90
19033;DHT22;9649;51.042;13.804;2022-07-01T22:32:33;14.30;99.90
19033;DHT22;9649;51.042;13.804;2022-07-01T22:37:39;14.10;99.90
19033;DHT22;9649;51.042;13.804;2022-07-01T22:42:45;14.10;99.90
19033;DHT22;9649;51.042;13.804;2022-07-01T22:47:53;13.90;99.90
19033;DHT22;9649;51.042;13.804;2022-07-01T22:53:06;13.80;99.90
19033;DHT22;9649;51.042;13.804;2022-07-01T22:58:14;13.70;99.90
19033;DHT22;9649;51.042;13.804;2022-07-01T23:03:18;13.60;99.90
19033;DHT22;9649;51.042;13.804;2022-07-01T23:08:28;13.80;99.90
19033;DHT22;9649;51.042;13.804;2022-07-01T23:13:36;13.90;99.90
19033;DHT22;9649;51.042;13.804;2022-07-01T23:18:41;13.80;99.90
19033;DHT22;9649;51.042;13.804;2022-07-01T23:23:46;13.90;99.90
19033;DHT22;9649;51.042;13.804;2022-07-01T23:28:49;14.20;99.90
19033;DHT22;9649;51.042;13.804;2022-07-01T23:33:53;14.00;99.90
19033;DHT22;9649;51.042;13.804;2022-07-01T23:38:58;13.80;99.90
19033;DHT22;9649;51.042;13.804;2022-07-01T23:44:01;13.70;99.90
19033;DHT22;9649;51.042;13.804;2022-07-01T23:49:04;13.50;99.90
19033;DHT22;9649;51.042;13.804;2022-07-01T23:54:08;13.30;99.90
19033;DHT22;9649;51.042;13.804;2022-07-01T23:59:11;13.30;99.90
